Time;durP1;ratioP1;P1;durP2;ratioP2;P2;SDS_P1;SDS_P2;PMS_P1;PMS_P2;Temp;Humidity;BMP_temperature;BMP_pressure;BME280_temperature;BME280_humidity;BME280_pressure;Samples;Min_cycle;Max_cycle;Signal;HPM_P1;HPM_P2
2023/04/04 00:00:26;;;;;;;12.90;4.18;;;4.00;99.90;;;;;;5006656;28;20049;-60
2023/04/04 00:02:53;;;;;;;11.75;4.00;;;3.80;99.90;;;;;;5006829;28;20049;-61
2023/04/04 00:05:19;;;;;;;22.63;4.78;;;3.80;99.90;;;;;;5009248;28;20073;-61
2023/04/04 00:07:46;;;;;;;13.10;4.25;;;3.80;99.90;;;;;;5007586;28;20108;-61
2023/04/04 00:10:13;;;;;;;12.70;4.43;;;3.80;99.90;;;;;;5008058;28;20540;-61
2023/04/04 00:12:41;;;;;;;9.77;4.22;;;3.70;99.90;;;;;;5007402;28;20056;-61
2023/04/04 00:15:08;;;;;;;10.45;4.80;;;3.60;99.90;;;;;;4995903;28;20695;-61
2023/04/04 00:17:35;;;;;;;13.65;4.82;;;3.60;99.90;;;;;;5007883;28;20053;-60
2023/04/04 00:20:03;;;;;;;18.20;4.78;;;3.60;99.90;;;;;;4998225;28;20043;-61
2023/04/04 00:22:30;;;;;;;12.18;4.78;;;3.60;99.90;;;;;;4999299;28;20057;-60
2023/04/04 00:24:57;;;;;;;17.50;4.63;;;3.60;99.90;;;;;;5007837;28;20156;-61
2023/04/04 00:27:25;;;;;;;11.93;4.85;;;3.50;99.90;;;;;;5004947;28;20064;-61
2023/04/04 00:29:52;;;;;;;13.25;4.53;;;3.50;99.90;;;;;;5007663;28;20089;-61
2023/04/04 00:32:19;;;;;;;14.55;5.18;;;3.40;99.90;;;;;;5007420;28;20046;-60
2023/04/04 00:34:47;;;;;;;14.30;4.25;;;3.50;99.90;;;;;;5004089;28;20470;-60
2023/04/04 00:37:14;;;;;;;12.60;4.47;;;3.30;99.90;;;;;;4993668;28;20088;-60
2023/04/04 00:39:41;;;;;;;9.68;3.58;;;3.30;99.90;;;;;;5007404;28;20053;-60
2023/04/04 00:42:07;;;;;;;8.15;4.05;;;3.30;99.90;;;;;;5003831;28;20481;-60
2023/04/04 00:44:35;;;;;;;13.68;4.25;;;3.30;99.90;;;;;;4997872;28;20045;-60
2023/04/04 00:47:02;;;;;;;10.52;3.70;;;3.20;99.90;;;;;;5004780;28;20100;-61
2023/04/04 00:49:29;;;;;;;14.98;3.63;;;3.20;99.90;;;;;;4974234;28;20104;-62
2023/04/04 00:51:56;;;;;;;7.65;3.75;;;3.20;99.90;;;;;;5005581;28;20133;-60
2023/04/04 00:54:23;;;;;;;11.77;4.13;;;3.10;99.90;;;;;;5010097;28;20038;-63
2023/04/04 00:56:54;;;;;;;10.55;4.03;;;3.00;99.90;;;;;;5014156;28;20065;-61
2023/04/04 00:59:22;;;;;;;6.20;2.95;;;3.00;99.90;;;;;;5010888;28;20461;-61
2023/04/04 01:01:48;;;;;;;11.48;4.95;;;3.00;99.90;;;;;;4998887;28;20489;-62
2023/04/04 01:04:15;;;;;;;10.05;5.05;;;3.00;99.90;;;;;;5010379;28;20044;-60
2023/04/04 01:06:42;;;;;;;8.50;3.20;;;2.90;99.90;;;;;;5011198;28;20043;-61
2023/04/04 01:09:09;;;;;;;7.88;3.05;;;2.80;99.90;;;;;;4660745;28;9999921;-62
2023/04/04 01:11:36;;;;;;;5.30;3.47;;;2.80;99.90;;;;;;5007953;28;20050;-62
2023/04/04 01:14:03;;;;;;;10.57;3.95;;;2.80;99.90;;;;;;5006125;28;20042;-62
2023/04/04 01:16:30;;;;;;;11.23;4.13;;;2.80;99.90;;;;;;5010970;28;20137;-61
2023/04/04 01:18:57;;;;;;;6.97;3.22;;;2.90;99.90;;;;;;4992922;28;20049;-61
2023/04/04 01:21:24;;;;;;;9.55;2.60;;;2.80;99.90;;;;;;5010375;28;20049;-59
2023/04/04 01:24:00;;;;;;;10.48;3.53;;;2.80;99.90;;;;;;4993151;28;20046;-60
2023/04/04 01:26:27;;;;;;;7.85;3.40;;;2.70;99.90;;;;;;5010584;28;20045;-60
2023/04/04 01:28:57;;;;;;;9.45;3.35;;;2.60;99.90;;;;;;5011018;28;20180;-61
2023/04/04 01:31:47;;;;;;;13.70;3.47;;;2.70;99.90;;;;;;5010221;28;20165;-60
2023/04/04 01:34:27;;;;;;;8.32;3.28;;;2.60;99.90;;;;;;5006802;28;20045;-59
2023/04/04 01:36:56;;;;;;;12.32;3.63;;;2.60;99.90;;;;;;4997491;28;20137;-61
2023/04/04 01:39:41;;;;;;;11.73;3.78;;;2.50;99.90;;;;;;5006662;28;20080;-59
2023/04/04 01:42:08;;;;;;;10.82;3.13;;;2.50;99.90;;;;;;5011966;28;20057;-61
2023/04/04 01:44:35;;;;;;;15.38;3.75;;;2.50;99.90;;;;;;5011401;28;20058;-61
2023/04/04 01:47:05;;;;;;;14.45;4.10;;;2.50;99.90;;;;;;4997043;28;20049;-60
2023/04/04 01:49:32;;;;;;;8.38;3.05;;;2.50;99.90;;;;;;4994133;28;20046;-61
2023/04/04 01:51:59;;;;;;;8.07;3.33;;;2.50;99.90;;;;;;5000541;28;20061;-61
2023/04/04 01:54:27;;;;;;;6.22;3.83;;;2.50;99.90;;;;;;5013694;28;20576;-60
2023/04/04 01:56:53;;;;;;;8.52;3.75;;;2.50;99.90;;;;;;5009061;28;20046;-61
2023/04/04 01:59:20;;;;;;;8.40;2.85;;;2.40;99.90;;;;;;5005434;28;20052;-60
2023/04/04 02:01:47;;;;;;;7.38;2.63;;;2.30;99.90;;;;;;5009878;28;20049;-61
2023/04/04 02:04:14;;;;;;;10.05;3.75;;;2.30;99.90;;;;;;5008824;28;20046;-61
2023/04/04 02:06:41;;;;;;;4.20;2.70;;;2.30;99.90;;;;;;5009612;28;20075;-61
2023/04/04 02:09:08;;;;;;;9.85;3.65;;;2.30;99.90;;;;;;5009539;28;20081;-60
2023/04/04 02:11:35;;;;;;;11.80;4.00;;;2.00;99.90;;;;;;5000085;28;20069;-60
2023/04/04 02:14:02;;;;;;;13.30;3.45;;;2.10;99.90;;;;;;5003644;28;20046;-62
2023/04/04 02:16:29;;;;;;;13.43;3.40;;;2.10;99.90;;;;;;5009361;28;20048;-60
2023/04/04 02:18:56;;;;;;;9.35;3.17;;;2.10;99.90;;;;;;5009278;28;20054;-60
2023/04/04 02:21:25;;;;;;;7.35;2.95;;;2.10;99.90;;;;;;5009181;28;20064;-61
2023/04/04 02:23:52;;;;;;;8.43;3.08;;;2.10;99.90;;;;;;5006778;28;20112;-61
2023/04/04 02:26:20;;;;;;;6.22;2.72;;;2.10;99.90;;;;;;5009108;28;20060;-62
2023/04/04 02:28:46;;;;;;;9.45;3.85;;;2.10;99.90;;;;;;5008904;28;20084;-61
2023/04/04 02:31:13;;;;;;;8.30;3.63;;;2.10;99.90;;;;;;4995678;28;20052;-61
2023/04/04 02:33:40;;;;;;;9.15;3.30;;;2.00;99.90;;;;;;5008851;28;20050;-61
2023/04/04 02:36:07;;;;;;;6.55;2.72;;;2.00;99.90;;;;;;5009016;28;20489;-61
2023/04/04 02:38:34;;;;;;;6.18;3.13;;;2.00;99.90;;;;;;5009030;28;20053;-61
2023/04/04 02:41:00;;;;;;;10.07;3.95;;;2.00;99.90;;;;;;4995611;28;20513;-61
2023/04/04 02:43:27;;;;;;;8.80;3.38;;;2.00;99.90;;;;;;5008643;28;20050;-62
2023/04/04 02:45:54;;;;;;;11.73;3.28;;;1.90;99.90;;;;;;5009168;28;20077;-61
2023/04/04 02:48:20;;;;;;;13.57;3.97;;;1.90;99.90;;;;;;5008293;28;20128;-61
2023/04/04 02:50:47;;;;;;;9.27;4.45;;;1.90;99.90;;;;;;5008955;28;20042;-61
2023/04/04 02:53:14;;;;;;;7.80;3.40;;;1.90;99.90;;;;;;5001027;28;20137;-61
2023/04/04 02:55:41;;;;;;;8.30;3.55;;;1.90;99.90;;;;;;5009122;28;20045;-60
2023/04/04 02:58:08;;;;;;;8.07;3.42;;;1.90;99.90;;;;;;5008930;28;20073;-60
2023/04/04 03:00:35;;;;;;;6.93;3.42;;;1.80;99.90;;;;;;5005322;28;20490;-60
2023/04/04 03:03:02;;;;;;;8.98;3.45;;;1.80;99.90;;;;;;5004298;28;20133;-60
2023/04/04 03:05:30;;;;;;;7.97;3.13;;;1.80;99.90;;;;;;5004349;28;20042;-61
2023/04/04 03:07:57;;;;;;;7.50;3.40;;;1.80;99.90;;;;;;4996588;28;20077;-61
2023/04/04 03:10:25;;;;;;;8.25;3.90;;;1.90;99.90;;;;;;5008719;28;20056;-60
2023/04/04 03:12:51;;;;;;;7.50;3.40;;;1.80;99.90;;;;;;5005828;28;20137;-60
2023/04/04 03:15:18;;;;;;;7.07;3.22;;;1.80;99.90;;;;;;5011165;28;20513;-60
2023/04/04 03:17:45;;;;;;;11.07;3.33;;;1.80;99.90;;;;;;5008492;28;20071;-60
2023/04/04 03:20:13;;;;;;;9.38;3.42;;;1.80;99.90;;;;;;4996454;28;20065;-60
2023/04/04 03:22:41;;;;;;;5.53;3.08;;;1.80;99.90;;;;;;5002535;28;20497;-60
2023/04/04 03:25:08;;;;;;;9.70;3.17;;;1.80;99.90;;;;;;5008303;28;20111;-60
2023/04/04 03:27:35;;;;;;;7.65;4.03;;;1.80;99.90;;;;;;5008475;28;20149;-60
2023/04/04 03:30:02;;;;;;;13.95;3.97;;;1.70;99.90;;;;;;5008375;28;20477;-60
2023/04/04 03:32:28;;;;;;;6.88;3.72;;;1.80;99.90;;;;;;5008398;28;20049;-61
2023/04/04 03:34:55;;;;;;;9.68;4.03;;;1.70;99.90;;;;;;5007993;28;20046;-61
2023/04/04 03:37:22;;;;;;;10.25;3.60;;;1.70;99.90;;;;;;4997435;28;20070;-61
2023/04/04 03:39:49;;;;;;;7.22;4.35;;;1.70;99.90;;;;;;5006347;28;20042;-60
2023/04/04 03:42:16;;;;;;;15.35;4.82;;;1.70;99.90;;;;;;5008185;28;20443;-60
2023/04/04 03:44:43;;;;;;;13.45;4.72;;;1.70;99.90;;;;;;5009197;28;20072;-60
2023/04/04 03:47:09;;;;;;;13.43;4.55;;;1.70;99.90;;;;;;5005051;28;20528;-61
2023/04/04 03:49:36;;;;;;;11.15;5.10;;;1.70;99.90;;;;;;5008106;28;20045;-61
2023/04/04 03:52:03;;;;;;;15.10;4.68;;;1.70;99.90;;;;;;5004861;28;20121;-59
2023/04/04 03:54:29;;;;;;;10.73;4.72;;;1.70;99.90;;;;;;5008027;28;20141;-61
2023/04/04 03:56:56;;;;;;;13.90;4.72;;;1.60;99.90;;;;;;5008186;28;20068;-61
2023/04/04 03:59:23;;;;;;;16.25;5.22;;;1.60;99.90;;;;;;4986135;28;20125;-62
2023/04/04 04:01:51;;;;;;;10.15;3.88;;;1.60;99.90;;;;;;5007770;28;20140;-60
2023/04/04 04:04:18;;;;;;;13.20;6.32;;;1.60;99.90;;;;;;5005591;28;20044;-61
2023/04/04 04:06:44;;;;;;;12.63;4.85;;;1.60;99.90;;;;;;5002320;28;20516;-61
2023/04/04 04:09:11;;;;;;;10.73;4.93;;;1.50;99.90;;;;;;4998337;28;20046;-61
2023/04/04 04:11:38;;;;;;;11.73;4.85;;;1.50;99.90;;;;;;4998147;28;20050;-61
2023/04/04 04:14:05;;;;;;;20.60;4.85;;;1.40;99.90;;;;;;5008051;28;20132;-61
2023/04/04 04:16:31;;;;;;;13.68;4.25;;;1.40;99.90;;;;;;4997923;28;20232;-61
2023/04/04 04:18:59;;;;;;;11.00;4.15;;;1.30;99.90;;;;;;5008804;28;20512;-60
2023/04/04 04:21:25;;;;;;;12.23;3.92;;;1.30;99.90;;;;;;4997667;28;20042;-60
2023/04/04 04:23:52;;;;;;;11.15;4.78;;;1.30;99.90;;;;;;4997023;28;20050;-60
2023/04/04 04:26:20;;;;;;;9.77;5.20;;;1.30;99.90;;;;;;5007350;28;20046;-61
2023/04/04 04:28:47;;;;;;;7.80;3.83;;;1.30;99.90;;;;;;5010700;28;20604;-61
2023/04/04 04:31:14;;;;;;;10.75;4.07;;;1.30;99.90;;;;;;5011670;28;20100;-61
2023/04/04 04:33:41;;;;;;;12.68;3.90;;;1.30;99.90;;;;;;5011468;28;20483;-61
2023/04/04 04:36:08;;;;;;;16.60;4.22;;;1.30;99.90;;;;;;5011830;28;20120;-61
2023/04/04 04:38:35;;;;;;;15.07;4.40;;;1.30;99.90;;;;;;5010924;28;20058;-61
2023/04/04 04:41:02;;;;;;;16.67;5.55;;;1.30;99.90;;;;;;5012031;28;20066;-61
2023/04/04 04:43:29;;;;;;;9.27;4.57;;;1.30;99.90;;;;;;5008679;28;20050;-61
2023/04/04 04:45:56;;;;;;;13.18;4.88;;;1.40;99.90;;;;;;5010178;28;20049;-61
2023/04/04 04:48:22;;;;;;;13.00;4.32;;;1.20;99.90;;;;;;5003041;28;20084;-61
2023/04/04 04:50:49;;;;;;;7.93;3.83;;;1.50;99.90;;;;;;4994084;28;20046;-60
2023/04/04 04:53:16;;;;;;;12.07;4.82;;;1.20;99.90;;;;;;5011002;28;20050;-61
2023/04/04 04:55:43;;;;;;;8.20;4.60;;;1.10;99.90;;;;;;5015266;28;20044;-61
2023/04/04 04:58:10;;;;;;;8.68;3.97;;;1.10;99.90;;;;;;5001484;28;20054;-61
2023/04/04 05:00:37;;;;;;;17.35;4.20;;;1.00;99.90;;;;;;5007303;28;20048;-60
2023/04/04 05:03:07;;;;;;;9.23;5.13;;;1.00;99.90;;;;;;5009073;28;20448;-59
2023/04/04 05:05:35;;;;;;;14.27;4.32;;;1.10;99.90;;;;;;5017348;28;20049;-61
2023/04/04 05:08:02;;;;;;;10.77;4.43;;;1.10;99.90;;;;;;5000445;28;20050;-61
2023/04/04 05:10:29;;;;;;;12.60;3.80;;;1.10;99.90;;;;;;5000568;28;20045;-61
2023/04/04 05:12:56;;;;;;;12.90;4.47;;;1.00;99.90;;;;;;5008668;28;20046;-62
2023/04/04 05:15:24;;;;;;;13.02;5.63;;;1.10;99.90;;;;;;5015575;28;20111;-60
2023/04/04 05:17:51;;;;;;;14.80;6.07;;;1.00;99.90;;;;;;5014346;28;20050;-60
2023/04/04 05:20:18;;;;;;;8.02;4.35;;;1.10;99.90;;;;;;5001564;28;20049;-60
2023/04/04 05:22:45;;;;;;;6.97;4.13;;;1.00;99.90;;;;;;5016709;28;20057;-60
2023/04/04 05:25:12;;;;;;;19.80;6.30;;;1.00;99.90;;;;;;5010713;28;20046;-61
2023/04/04 05:27:39;;;;;;;12.60;4.45;;;1.10;99.90;;;;;;5006108;28;20056;-60
2023/04/04 05:30:06;;;;;;;14.35;5.50;;;1.00;99.90;;;;;;4997139;28;20082;-60
2023/04/04 05:32:34;;;;;;;12.10;5.15;;;1.00;99.90;;;;;;5006705;28;20092;-62
2023/04/04 05:35:01;;;;;;;13.57;5.57;;;1.00;99.90;;;;;;5010350;28;20054;-61
2023/04/04 05:37:27;;;;;;;11.05;4.53;;;0.90;99.90;;;;;;5009215;28;20058;-61
2023/04/04 05:39:54;;;;;;;28.27;5.07;;;0.90;99.90;;;;;;4998757;28;20478;-60
2023/04/04 05:42:21;;;;;;;13.07;4.78;;;0.90;99.90;;;;;;4998352;28;20074;-60
2023/04/04 05:44:48;;;;;;;12.40;4.90;;;0.80;99.90;;;;;;5009993;28;20054;-60
2023/04/04 05:47:14;;;;;;;13.70;4.93;;;0.90;99.90;;;;;;4999485;28;20490;-60
2023/04/04 05:49:41;;;;;;;16.02;4.90;;;0.90;99.90;;;;;;5009603;28;20056;-58
2023/04/04 05:52:09;;;;;;;11.65;4.88;;;0.80;99.90;;;;;;5009954;28;20404;-59
2023/04/04 05:54:36;;;;;;;13.63;5.38;;;0.70;99.90;;;;;;5009093;28;20054;-59
2023/04/04 05:57:02;;;;;;;14.18;6.15;;;0.70;99.90;;;;;;4999663;28;20073;-60
2023/04/04 05:59:29;;;;;;;9.85;5.13;;;0.70;99.90;;;;;;5007055;28;20064;-60
2023/04/04 06:01:56;;;;;;;18.88;5.85;;;0.80;99.90;;;;;;5003730;28;20042;-59
2023/04/04 06:04:23;;;;;;;20.25;6.25;;;0.80;99.90;;;;;;4993242;28;20137;-60
2023/04/04 06:06:50;;;;;;;17.33;5.60;;;0.90;99.90;;;;;;5003551;28;20345;-61
2023/04/04 06:09:17;;;;;;;15.30;6.35;;;0.90;99.90;;;;;;5005295;28;20064;-60
2023/04/04 06:11:44;;;;;;;15.15;5.05;;;0.90;99.90;;;;;;5006620;28;20493;-60
2023/04/04 06:14:11;;;;;;;22.13;7.43;;;1.00;99.90;;;;;;4648968;28;10000281;-60
2023/04/04 06:16:40;;;;;;;12.00;6.18;;;1.10;99.90;;;;;;5004244;28;20054;-60
2023/04/04 06:19:07;;;;;;;12.60;6.07;;;1.10;99.90;;;;;;5001698;28;20422;-58
2023/04/04 06:21:34;;;;;;;15.00;6.63;;;1.20;99.90;;;;;;5003736;28;20060;-58
2023/04/04 06:24:01;;;;;;;16.00;5.78;;;1.20;99.90;;;;;;5006706;28;20120;-63
2023/04/04 06:26:28;;;;;;;13.98;5.85;;;1.20;99.90;;;;;;5000915;28;20082;-60
2023/04/04 06:28:55;;;;;;;16.83;6.63;;;1.30;99.90;;;;;;5001864;28;20060;-59
2023/04/04 06:31:22;;;;;;;12.32;5.07;;;1.30;99.90;;;;;;5006153;28;20041;-61
2023/04/04 06:33:48;;;;;;;11.23;5.72;;;1.40;99.90;;;;;;5002351;28;20140;-59
2023/04/04 06:36:15;;;;;;;10.00;6.15;;;1.50;99.90;;;;;;5005620;28;20058;-60
2023/04/04 06:38:42;;;;;;;11.25;6.43;;;1.40;99.90;;;;;;5006311;28;20050;-60
2023/04/04 06:41:09;;;;;;;14.80;7.05;;;1.40;99.90;;;;;;4992800;28;20043;-60
2023/04/04 06:43:36;;;;;;;15.55;6.88;;;1.50;99.90;;;;;;4996241;28;20065;-59
2023/04/04 06:46:03;;;;;;;21.63;8.05;;;1.60;99.90;;;;;;5006273;28;20595;-59
2023/04/04 06:48:30;;;;;;;15.32;6.68;;;1.70;99.90;;;;;;4993384;28;20060;-60
2023/04/04 06:50:56;;;;;;;24.02;7.78;;;1.80;99.90;;;;;;5003896;28;20048;-61
2023/04/04 06:53:24;;;;;;;18.20;6.53;;;1.80;99.90;;;;;;5005400;28;20065;-61
2023/04/04 06:55:52;;;;;;;15.68;6.72;;;1.90;99.90;;;;;;5005249;28;20459;-60
2023/04/04 06:58:19;;;;;;;21.25;6.82;;;2.00;99.90;;;;;;4987971;28;20077;-61
2023/04/04 07:00:46;;;;;;;15.95;6.15;;;2.10;99.90;;;;;;5002196;28;20150;-58
2023/04/04 07:03:12;;;;;;;20.35;7.63;;;2.20;99.90;;;;;;4978102;28;20081;-61
2023/04/04 07:05:43;;;;;;;15.10;6.18;;;2.30;99.90;;;;;;4984520;28;20407;-61
2023/04/04 07:08:10;;;;;;;14.52;6.55;;;2.40;99.90;;;;;;4995594;28;20758;-61
2023/04/04 07:10:36;;;;;;;18.65;6.95;;;2.50;99.90;;;;;;4991427;28;20046;-61
2023/04/04 07:13:06;;;;;;;13.52;6.65;;;2.60;99.90;;;;;;4980283;28;20046;-60
2023/04/04 07:15:33;;;;;;;12.68;5.70;;;2.70;99.90;;;;;;4979053;28;20076;-60
2023/04/04 07:18:00;;;;;;;13.43;6.20;;;2.70;99.90;;;;;;4996531;28;20077;-60
2023/04/04 07:20:27;;;;;;;20.30;6.47;;;2.80;99.90;;;;;;4996165;28;20615;-60
2023/04/04 07:22:54;;;;;;;21.98;6.72;;;2.90;99.90;;;;;;4995893;28;20041;-61
2023/04/04 07:25:21;;;;;;;16.00;6.20;;;3.00;99.90;;;;;;4996314;28;20054;-60
2023/04/04 07:27:48;;;;;;;16.60;6.65;;;3.10;99.90;;;;;;4981042;28;20057;-61
2023/04/04 07:30:20;;;;;;;16.85;7.00;;;3.10;99.90;;;;;;4996277;28;20149;-58
2023/04/04 07:32:47;;;;;;;15.13;7.03;;;3.20;99.90;;;;;;5002173;28;20049;-60
2023/04/04 07:35:13;;;;;;;13.82;6.38;;;3.30;99.90;;;;;;4994831;28;20054;-60
2023/04/04 07:37:40;;;;;;;12.45;5.60;;;3.40;99.90;;;;;;4991956;28;20536;-60
2023/04/04 07:40:08;;;;;;;10.40;6.28;;;3.50;99.90;;;;;;5003093;28;20544;-60
2023/04/04 07:42:35;;;;;;;17.75;5.75;;;3.60;99.90;;;;;;5004256;28;20065;-59
2023/04/04 07:45:01;;;;;;;15.65;7.00;;;3.70;99.90;;;;;;5004854;28;20069;-62
2023/04/04 07:47:28;;;;;;;20.38;7.82;;;3.80;99.90;;;;;;4998579;28;20068;-60
2023/04/04 07:49:55;;;;;;;22.83;6.68;;;3.90;99.90;;;;;;4990932;28;20054;-59
2023/04/04 07:52:22;;;;;;;18.70;8.00;;;4.00;99.90;;;;;;5003531;28;20137;-61
2023/04/04 07:54:50;;;;;;;16.02;6.50;;;4.10;99.90;;;;;;4996521;28;20446;-59
2023/04/04 07:57:17;;;;;;;18.20;7.00;;;4.20;99.90;;;;;;5007434;28;20046;-59
2023/04/04 07:59:44;;;;;;;16.35;6.40;;;4.30;99.90;;;;;;4996687;28;20054;-61
2023/04/04 08:02:10;;;;;;;20.30;7.85;;;4.40;99.90;;;;;;4989064;28;20049;-60
2023/04/04 08:04:37;;;;;;;14.07;5.13;;;4.50;99.90;;;;;;5008657;28;20054;-61
2023/04/04 08:07:04;;;;;;;10.27;4.80;;;4.60;99.90;;;;;;5013529;28;20132;-61
2023/04/04 08:09:33;;;;;;;15.13;5.90;;;4.70;99.90;;;;;;5007762;28;20100;-61
2023/04/04 08:12:01;;;;;;;15.07;5.22;;;4.80;99.90;;;;;;5008442;28;20624;-62
2023/04/04 08:14:27;;;;;;;13.90;5.28;;;4.90;99.90;;;;;;5005171;28;20046;-61
2023/04/04 08:16:54;;;;;;;10.95;4.90;;;4.90;99.90;;;;;;4999932;28;20056;-60
2023/04/04 08:19:21;;;;;;;7.82;3.55;;;5.00;99.90;;;;;;5008405;28;20049;-60
2023/04/04 08:21:48;;;;;;;15.55;4.72;;;5.20;99.90;;;;;;5008605;28;20046;-60
2023/04/04 08:24:15;;;;;;;11.68;3.20;;;5.30;99.90;;;;;;5007195;28;20073;-60
2023/04/04 08:26:42;;;;;;;13.95;4.65;;;5.50;99.90;;;;;;4999942;28;20045;-62
2023/04/04 08:29:15;;;;;;;12.45;3.45;;;5.60;99.90;;;;;;5010200;28;20049;-62
2023/04/04 08:31:42;;;;;;;17.95;4.18;;;5.70;99.90;;;;;;5011468;28;20508;-61
2023/04/04 08:34:09;;;;;;;14.73;4.20;;;5.80;99.90;;;;;;5013086;28;20049;-60
2023/04/04 08:36:35;;;;;;;9.43;3.80;;;5.90;99.90;;;;;;5006854;28;20137;-61
2023/04/04 08:39:02;;;;;;;14.20;4.47;;;6.00;99.90;;;;;;5002535;28;20054;-61
2023/04/04 08:41:31;;;;;;;13.70;4.43;;;6.10;99.90;;;;;;5001935;28;20049;-59
2023/04/04 08:43:58;;;;;;;14.63;4.60;;;6.20;99.90;;;;;;5006431;28;20470;-61
2023/04/04 08:46:25;;;;;;;16.63;4.85;;;6.30;99.90;;;;;;4996491;28;20137;-61
2023/04/04 08:48:52;;;;;;;9.15;3.70;;;6.40;99.90;;;;;;4990376;28;20053;-61
2023/04/04 08:51:19;;;;;;;15.90;5.38;;;6.50;99.90;;;;;;4999304;28;20505;-60
2023/04/04 08:53:46;;;;;;;6.63;3.80;;;6.50;99.90;;;;;;5010290;28;20133;-60
2023/04/04 08:56:13;;;;;;;15.23;5.35;;;6.60;99.90;;;;;;4997148;28;20080;-63
2023/04/04 08:58:40;;;;;;;12.45;4.47;;;6.70;99.90;;;;;;4997711;28;20050;-59
2023/04/04 09:01:07;;;;;;;25.75;4.38;;;6.80;99.90;;;;;;4997512;28;20104;-59
2023/04/04 09:03:34;;;;;;;12.60;4.78;;;6.90;99.90;;;;;;4998810;28;20069;-59
2023/04/04 09:06:01;;;;;;;14.60;4.78;;;7.00;99.90;;;;;;4996990;28;20046;-60
2023/04/04 09:08:28;;;;;;;22.15;6.15;;;7.10;99.90;;;;;;5003882;28;20054;-60
2023/04/04 09:10:55;;;;;;;13.77;4.60;;;7.10;99.90;;;;;;5006425;28;20137;-60
2023/04/04 09:13:22;;;;;;;10.60;4.45;;;7.20;99.90;;;;;;4994705;28;20077;-61
2023/04/04 09:15:56;;;;;;;10.93;3.70;;;7.30;99.90;;;;;;5001463;28;20084;-60
2023/04/04 09:18:22;;;;;;;12.00;3.83;;;7.30;99.90;;;;;;5007192;28;20061;-60
2023/04/04 09:20:49;;;;;;;17.42;4.10;;;7.40;99.90;;;;;;5005465;28;20128;-61
2023/04/04 09:23:18;;;;;;;19.25;4.20;;;7.50;99.90;;;;;;5001196;28;20041;-60
2023/04/04 09:25:52;;;;;;;11.02;3.72;;;7.60;99.90;;;;;;5002628;28;20053;-60
2023/04/04 09:28:22;;;;;;;8.40;3.88;;;8.00;99.90;;;;;;4981848;28;20509;-64
2023/04/04 09:30:50;;;;;;;11.48;4.70;;;8.40;99.90;;;;;;5000891;28;20081;-61
2023/04/04 09:33:17;;;;;;;10.00;3.75;;;8.80;99.90;;;;;;5007583;28;20057;-61
2023/04/04 09:35:48;;;;;;;10.65;4.13;;;9.20;99.90;;;;;;5005731;28;20077;-61
2023/04/04 09:38:15;;;;;;;16.40;4.35;;;9.70;99.90;;;;;;5005817;28;20156;-60
2023/04/04 09:40:42;;;;;;;13.95;3.60;;;10.00;99.90;;;;;;4979601;28;20050;-61
2023/04/04 09:43:09;;;;;;;15.55;3.83;;;10.20;99.90;;;;;;5003089;28;20054;-60
2023/04/04 09:45:39;;;;;;;13.20;4.13;;;10.60;99.90;;;;;;4995197;28;20081;-62
2023/04/04 09:48:09;;;;;;;14.13;4.68;;;10.90;99.90;;;;;;5002082;28;20507;-61
2023/04/04 09:50:46;;;;;;;9.90;3.45;;;11.20;99.90;;;;;;5000532;28;20050;-61
2023/04/04 09:53:18;;;;;;;16.33;5.63;;;11.50;99.90;;;;;;4999211;28;20254;-61
2023/04/04 09:55:52;;;;;;;11.23;3.92;;;11.60;99.90;;;;;;4999875;28;20129;-61
2023/04/04 09:58:26;;;;;;;16.60;3.88;;;11.60;99.90;;;;;;4999895;28;20164;-61
2023/04/04 10:00:55;;;;;;;10.48;3.78;;;11.90;99.90;;;;;;4995787;28;20489;-61
2023/04/04 10:03:25;;;;;;;15.23;4.13;;;11.90;99.90;;;;;;4997411;28;20101;-61
2023/04/04 10:06:04;;;;;;;15.77;3.97;;;11.70;99.90;;;;;;4993304;28;20038;-62
2023/04/04 10:08:33;;;;;;;23.10;4.57;;;11.20;99.90;;;;;;4994819;28;20129;-60
2023/04/04 10:11:02;;;;;;;8.23;3.38;;;10.90;99.90;;;;;;4994653;28;20054;-61
2023/04/04 10:13:42;;;;;;;14.10;3.55;;;10.70;99.90;;;;;;4989925;28;20057;-61
2023/04/04 10:16:09;;;;;;;20.17;4.18;;;10.60;99.90;;;;;;4989187;28;20073;-61
2023/04/04 10:18:37;;;;;;;8.60;3.10;;;10.40;99.90;;;;;;4997206;28;20050;-61
2023/04/04 10:21:05;;;;;;;15.68;3.55;;;10.30;99.90;;;;;;4992145;28;20134;-60
2023/04/04 10:23:35;;;;;;;23.27;4.57;;;10.30;99.90;;;;;;4999704;28;20589;-60
2023/04/04 10:26:02;;;;;;;10.10;3.58;;;10.20;99.90;;;;;;4990495;28;20100;-61
2023/04/04 10:28:30;;;;;;;9.77;3.38;;;10.20;99.90;;;;;;5000751;28;20052;-61
2023/04/04 10:31:14;;;;;;;10.70;3.33;;;10.10;99.90;;;;;;4993937;28;20060;-61
2023/04/04 10:34:18;;;;;;;13.38;3.35;;;10.00;99.90;;;;;;5002700;28;20038;-61
2023/04/04 10:37:06;;;;;;;9.00;3.60;;;9.90;99.90;;;;;;4997673;28;20081;-61
2023/04/04 10:39:35;;;;;;;11.38;3.08;;;9.90;99.90;;;;;;4995959;28;20042;-61
2023/04/04 10:42:02;;;;;;;7.65;3.05;;;9.80;99.90;;;;;;4998026;28;20762;-61
2023/04/04 10:44:40;;;;;;;15.35;5.53;;;9.80;99.90;;;;;;4995401;28;20309;-60
2023/04/04 10:47:22;;;;;;;10.70;3.45;;;9.70;99.90;;;;;;5105554;27;20392;-61
2023/04/04 10:49:49;;;;;;;8.52;3.10;;;9.80;99.90;;;;;;5103008;28;20040;-60
2023/04/04 10:52:18;;;;;;;7.68;3.17;;;9.80;99.90;;;;;;5104816;28;20043;-59
2023/04/04 10:54:45;;;;;;;8.50;3.42;;;9.80;99.90;;;;;;5085229;28;20069;-60
2023/04/04 10:57:13;;;;;;;16.40;3.20;;;9.80;99.90;;;;;;5101274;28;20502;-61
2023/04/04 10:59:56;;;;;;;13.23;3.78;;;9.80;99.90;;;;;;5100376;28;20135;-60
2023/04/04 11:02:45;;;;;;;13.95;3.85;;;9.90;99.90;;;;;;5101131;28;20079;-60
2023/04/04 11:05:26;;;;;;;9.73;4.45;;;10.00;99.90;;;;;;5097736;28;20043;-60
2023/04/04 11:08:09;;;;;;;11.80;4.45;;;10.00;99.90;;;;;;5100154;28;20065;-61
2023/04/04 11:10:37;;;;;;;9.95;3.20;;;10.00;99.90;;;;;;5100350;28;20113;-61
2023/04/04 11:13:21;;;;;;;7.95;2.88;;;10.10;99.90;;;;;;5101134;28;20051;-61
2023/04/04 11:16:03;;;;;;;;;;;10.10;99.90;;;;;;5100241;28;20101;-60
2023/04/04 11:18:30;;;;;;;7.78;3.35;;;10.20;99.90;;;;;;5100189;28;20187;-62
2023/04/04 11:21:04;;;;;;;11.43;2.70;;;10.30;99.90;;;;;;5099622;28;20078;-60
2023/04/04 11:23:57;;;;;;;10.55;3.42;;;10.40;99.30;;;;;;5099017;28;20513;-60
2023/04/04 11:26:26;;;;;;;6.28;3.00;;;10.40;99.50;;;;;;5093977;27;20058;-60
2023/04/04 11:28:57;;;;;;;15.88;3.55;;;10.40;99.90;;;;;;5101220;28;20055;-61
2023/04/04 11:31:26;;;;;;;11.93;3.28;;;10.40;99.90;;;;;;5099854;28;20087;-61
2023/04/04 11:33:59;;;;;;;8.27;3.35;;;10.50;99.90;;;;;;5100706;28;20040;-61
2023/04/04 11:36:37;;;;;;;12.45;3.78;;;10.50;99.90;;;;;;5098349;28;20047;-60
2023/04/04 11:39:14;;;;;;;7.82;2.97;;;10.50;98.80;;;;;;5101889;28;20044;-60
2023/04/04 11:42:07;;;;;;;7.53;3.50;;;10.60;99.90;;;;;;5100313;28;20078;-61
2023/04/04 11:45:00;;;;;;;13.07;3.20;;;10.60;96.60;;;;;;5112383;28;20047;-61
2023/04/04 11:47:28;;;;;;;11.70;3.28;;;10.60;97.60;;;;;;5101580;28;20044;-60
2023/04/04 11:49:55;;;;;;;10.90;2.78;;;10.80;99.40;;;;;;5099072;28;20050;-59
2023/04/04 11:52:24;;;;;;;7.65;3.15;;;10.90;99.90;;;;;;5098785;28;20139;-59
2023/04/04 11:54:51;;;;;;;5.13;2.60;;;10.90;98.90;;;;;;5099425;28;20048;-59
2023/04/04 11:57:19;;;;;;;9.05;3.10;;;11.00;99.00;;;;;;5093442;28;20048;-61
2023/04/04 11:59:50;;;;;;;8.00;3.05;;;11.00;99.20;;;;;;5087061;28;20140;-59
2023/04/04 12:02:30;;;;;;;9.00;3.20;;;11.00;98.80;;;;;;5085501;28;20073;-59
2023/04/04 12:04:58;;;;;;;7.47;2.70;;;11.10;96.50;;;;;;5086105;28;20051;-60
2023/04/04 12:07:25;;;;;;;5.07;2.83;;;11.20;97.20;;;;;;5084745;28;20052;-60
2023/04/04 12:09:52;;;;;;;6.57;2.72;;;11.20;96.50;;;;;;5085396;28;20079;-59
2023/04/04 12:12:21;;;;;;;7.60;3.30;;;11.30;94.50;;;;;;5065570;28;20052;-59
2023/04/04 12:14:48;;;;;;;8.52;3.72;;;11.30;96.40;;;;;;5085003;28;20168;-60
2023/04/04 12:17:16;;;;;;;6.90;3.10;;;11.30;95.80;;;;;;5084847;28;20048;-58
2023/04/04 12:19:43;;;;;;;13.18;3.60;;;11.30;95.50;;;;;;5092497;28;20150;-59
2023/04/04 12:22:10;;;;;;;8.98;3.50;;;11.30;95.20;;;;;;5086001;28;20090;-60
2023/04/04 12:24:37;;;;;;;6.60;3.28;;;11.20;96.20;;;;;;5086011;28;20163;-59
2023/04/04 12:27:04;;;;;;;5.05;3.13;;;11.30;96.20;;;;;;5084904;28;20066;-60
2023/04/04 12:29:35;;;;;;;5.88;2.75;;;11.30;94.50;;;;;;5094423;28;20610;-61
2023/04/04 12:32:02;;;;;;;11.00;3.78;;;11.30;95.90;;;;;;5085505;28;20052;-60
2023/04/04 12:34:30;;;;;;;7.35;2.60;;;11.30;93.30;;;;;;5082685;28;20127;-60
2023/04/04 12:36:57;;;;;;;12.05;3.50;;;11.30;95.20;;;;;;5081678;28;20083;-61
2023/04/04 12:39:25;;;;;;;12.43;3.45;;;11.30;94.50;;;;;;5083145;28;20047;-59
2023/04/04 12:41:53;;;;;;;12.05;3.30;;;11.50;95.20;;;;;;5081820;28;20044;-59
2023/04/04 12:44:33;;;;;;;11.73;3.53;;;11.60;95.30;;;;;;5083419;28;20117;-60
2023/04/04 12:47:01;;;;;;;16.13;3.30;;;11.70;93.50;;;;;;5084212;28;20513;-62
2023/04/04 12:49:34;;;;;;;12.43;3.10;;;11.80;95.20;;;;;;5085228;28;20040;-60
2023/04/04 12:52:03;;;;;;;12.45;4.13;;;11.90;94.70;;;;;;5084863;28;20139;-59
2023/04/04 12:54:31;;;;;;;11.85;3.83;;;12.00;95.20;;;;;;5066637;28;20043;-59